Time;durP1;ratioP1;P1;durP2;ratioP2;P2;SDS_P1;SDS_P2;PMS_P1;PMS_P2;Temp;Humidity;BMP_temperature;BMP_pressure;BME280_temperature;BME280_humidity;BME280_pressure;Samples;Min_cycle;Max_cycle;Signal;HPM_P1;HPM_P2
2021/03/24 00:00:25;;;;;;;4.63;1.75;;;;;;;7.46;76.55;101117.31;5069853;28;20093;-49
2021/03/24 00:02:54;;;;;;;13.73;3.30;;;;;;;7.46;76.48;101120.09;5063389;28;20056;-49
2021/03/24 00:05:22;;;;;;;10.75;2.22;;;;;;;7.45;76.39;101117.63;5067422;28;20149;-49
2021/03/24 00:07:49;;;;;;;14.00;2.25;;;;;;;7.44;76.56;101116.81;5071756;28;20079;-47
2021/03/24 00:10:15;;;;;;;6.22;1.88;;;;;;;7.45;76.39;101107.44;5071574;28;20043;-48
2021/03/24 00:12:42;;;;;;;8.35;2.25;;;;;;;7.44;76.37;101110.50;5071391;28;20045;-48
2021/03/24 00:15:11;;;;;;;5.30;1.85;;;;;;;7.42;76.35;101116.31;5070625;28;20076;-47
2021/03/24 00:17:38;;;;;;;8.65;1.60;;;;;;;7.38;75.96;101111.75;5071315;28;20493;-48
2021/03/24 00:20:10;;;;;;;9.10;2.00;;;;;;;7.34;76.32;101112.38;5070664;28;20048;-47
2021/03/24 00:22:37;;;;;;;;;;;;;;;7.31;76.51;101115.75;5070322;28;20040;-47
2021/03/24 00:25:05;;;;;;;9.05;1.55;;;;;;;7.29;76.32;101117.22;5070740;28;19920;-48
2021/03/24 00:27:31;;;;;;;11.77;1.90;;;;;;;7.26;76.29;101115.06;5071347;28;20083;-50
2021/03/24 00:29:57;;;;;;;11.35;2.13;;;;;;;7.24;76.52;101117.34;5070995;28;20119;-48
2021/03/24 00:32:24;;;;;;;10.77;2.95;;;;;;;7.24;76.29;101118.16;5071714;28;20664;-50
2021/03/24 00:34:50;;;;;;;7.88;2.28;;;;;;;7.23;76.40;101118.44;5070684;28;20585;-49
2021/03/24 00:37:17;;;;;;;7.22;1.60;;;;;;;7.24;76.20;101115.41;5071035;28;20044;-48
2021/03/24 00:39:43;;;;;;;9.25;1.90;;;;;;;7.24;76.32;101106.31;5068185;28;20082;-51
2021/03/24 00:42:10;;;;;;;8.93;1.75;;;;;;;7.23;76.09;101112.94;5055663;28;20041;-48
2021/03/24 00:44:36;;;;;;;7.13;1.75;;;;;;;7.23;76.01;101112.94;5051389;28;20099;-47
2021/03/24 00:47:02;;;;;;;6.25;1.85;;;;;;;7.21;76.32;101106.94;5051084;28;20045;-47
2021/03/24 00:49:30;;;;;;;10.48;2.00;;;;;;;7.20;76.04;101114.38;5062288;28;20056;-55
2021/03/24 00:51:57;;;;;;;8.18;1.75;;;;;;;7.18;76.25;101113.06;5066855;28;20470;-48
2021/03/24 00:54:23;;;;;;;12.82;2.08;;;;;;;7.17;76.00;101117.78;5058468;28;20045;-48
2021/03/24 00:56:49;;;;;;;7.55;1.98;;;;;;;7.18;76.19;101118.59;5075128;28;20128;-48
2021/03/24 00:59:16;;;;;;;9.88;2.53;;;;;;;7.19;75.89;101120.22;5075315;28;20543;-48
2021/03/24 01:01:43;;;;;;;14.85;2.35;;;;;;;7.20;75.92;101116.34;5074867;28;20033;-47
2021/03/24 01:04:09;;;;;;;9.98;2.30;;;;;;;7.20;75.84;101121.88;5074521;28;20133;-48
2021/03/24 01:06:36;;;;;;;13.07;2.25;;;;;;;7.17;75.72;101120.53;5075102;28;20080;-48
2021/03/24 01:09:03;;;;;;;10.95;2.20;;;;;;;7.14;75.80;101123.09;5074882;28;20565;-47
2021/03/24 01:11:29;;;;;;;6.35;1.95;;;;;;;7.14;75.71;101123.09;5063152;28;20056;-48
2021/03/24 01:13:56;;;;;;;11.82;1.80;;;;;;;7.14;75.51;101129.44;5074267;28;20098;-51
2021/03/24 01:16:22;;;;;;;7.38;1.73;;;;;;;7.11;75.57;101130.06;5074819;28;20068;-49
2021/03/24 01:18:48;;;;;;;11.10;1.50;;;;;;;7.08;75.55;101125.16;5074170;28;20075;-48
2021/03/24 01:21:14;;;;;;;8.20;2.13;;;;;;;7.05;75.68;101124.97;5074517;28;20068;-52
2021/03/24 01:23:41;;;;;;;16.40;2.30;;;;;;;7.03;75.73;101129.97;5074863;28;20110;-48
2021/03/24 01:26:07;;;;;;;9.60;2.38;;;;;;;7.00;75.90;101122.34;5075094;28;20437;-47
2021/03/24 01:28:33;;;;;;;11.32;1.73;;;;;;;7.00;75.82;101127.84;5073489;28;20068;-49
2021/03/24 01:31:01;;;;;;;8.85;1.55;;;;;;;6.97;75.73;101122.97;5074838;28;20119;-49
2021/03/24 01:33:28;;;;;;;6.95;2.10;;;;;;;6.96;75.42;101116.66;5074276;28;20457;-47
2021/03/24 01:35:55;;;;;;;10.23;2.75;;;;;;;6.95;75.47;101115.03;5074676;28;20060;-50
2021/03/24 01:38:22;;;;;;;12.98;2.55;;;;;;;6.91;75.70;101115.97;5074095;28;20045;-48
2021/03/24 01:40:57;;;;;;;11.80;2.08;;;;;;;6.90;75.65;101104.16;5074683;28;20046;-51
2021/03/24 01:43:31;;;;;;;11.32;2.42;;;;;;;6.90;75.82;101106.06;5074286;28;20036;-48
2021/03/24 01:46:20;;;;;;;8.50;1.95;;;;;;;6.91;76.01;101097.50;5069024;28;20041;-48
2021/03/24 01:48:53;;;;;;;11.15;1.85;;;;;;;6.91;75.85;101091.19;5072903;28;20393;-52
2021/03/24 01:51:34;;;;;;;10.18;2.45;;;;;;;6.89;75.98;101099.75;5074196;28;20044;-48
2021/03/24 01:54:01;;;;;;;18.08;2.25;;;;;;;6.91;76.06;101100.25;5073690;28;20037;-53
2021/03/24 01:56:29;;;;;;;9.80;2.05;;;;;;;6.91;75.90;101107.72;5074078;28;20506;-50
2021/03/24 01:58:57;;;;;;;10.68;2.00;;;;;;;6.94;75.84;101101.56;5073596;28;20052;-47
2021/03/24 02:01:24;;;;;;;10.50;2.38;;;;;;;6.95;76.10;101098.50;5074042;28;20083;-48
2021/03/24 02:03:51;;;;;;;6.88;2.20;;;;;;;6.97;76.17;101092.69;5073363;28;20075;-49
2021/03/24 02:06:43;;;;;;;8.93;2.22;;;;;;;6.99;76.12;101093.22;5072643;28;20041;-48
2021/03/24 02:09:13;;;;;;;9.07;2.35;;;;;;;7.00;76.00;101092.06;5073901;28;20044;-49
2021/03/24 02:11:50;;;;;;;8.50;2.50;;;;;;;6.98;75.89;101099.81;5056873;28;20442;-51
2021/03/24 02:14:25;;;;;;;10.55;2.95;;;;;;;6.98;75.83;101102.56;5054980;28;20049;-50
2021/03/24 02:16:54;;;;;;;15.40;2.75;;;;;;;6.98;75.80;101091.56;5074040;28;20135;-47
2021/03/24 02:19:57;;;;;;;7.88;2.20;;;;;;;6.92;75.90;101090.88;5072890;28;20041;-49
2021/03/24 02:22:30;;;;;;;10.05;2.20;;;;;;;6.90;75.81;101093.13;5073218;28;20075;-48
2021/03/24 02:25:12;;;;;;;14.73;3.13;;;;;;;6.87;75.74;101087.44;5074105;28;20064;-51
2021/03/24 02:27:44;;;;;;;12.68;1.98;;;;;;;6.85;75.77;101084.19;5073049;28;20493;-48
2021/03/24 02:30:15;;;;;;;10.52;2.33;;;;;;;6.84;75.75;101088.88;5072255;28;20068;-49
2021/03/24 02:32:50;;;;;;;9.52;2.88;;;;;;;6.81;75.76;101094.16;5073753;28;20049;-47
2021/03/24 02:35:21;;;;;;;19.65;3.22;;;;;;;6.79;75.76;101088.16;5072795;28;20057;-47
2021/03/24 02:37:48;;;;;;;8.87;1.50;;;;;;;6.77;75.52;101096.75;5073147;28;20068;-46
2021/03/24 02:40:19;;;;;;;7.88;2.33;;;;;;;6.75;75.59;101094.28;5073469;28;20076;-47
2021/03/24 02:42:48;;;;;;;12.07;2.15;;;;;;;6.73;75.61;101087.47;5072881;28;20490;-47
2021/03/24 02:45:23;;;;;;;8.90;1.83;;;;;;;6.68;75.81;101096.69;5073306;28;20734;-47
2021/03/24 02:47:51;;;;;;;7.82;2.30;;;;;;;6.68;75.66;101087.59;5067677;28;20040;-47
2021/03/24 02:50:20;;;;;;;11.65;2.10;;;;;;;6.64;75.51;101083.84;5072733;28;20036;-48
2021/03/24 02:52:48;;;;;;;12.00;2.08;;;;;;;6.63;75.55;101091.28;5071396;28;20448;-47
2021/03/24 02:55:16;;;;;;;21.02;1.80;;;;;;;6.59;75.31;101095.78;5072967;28;20051;-48
2021/03/24 02:57:43;;;;;;;10.13;1.77;;;;;;;6.60;75.48;101093.84;5071575;28;20075;-48
2021/03/24 03:00:17;;;;;;;4.05;1.23;;;;;;;6.60;75.26;101086.41;5070752;28;20482;-51
2021/03/24 03:02:49;;;;;;;7.38;1.73;;;;;;;6.60;75.38;101091.91;5071006;28;20044;-48
2021/03/24 03:05:31;;;;;;;7.93;1.85;;;;;;;6.64;75.47;101090.19;5071851;28;20044;-48
2021/03/24 03:08:07;;;;;;;6.20;1.70;;;;;;;6.71;75.41;101092.47;5072444;28;20119;-50
2021/03/24 03:10:55;;;;;;;14.23;1.85;;;;;;;6.77;75.25;101101.44;5072441;28;20040;-50
2021/03/24 03:13:35;;;;;;;15.05;4.45;;;;;;;6.80;75.31;101106.31;5072854;28;20056;-48
2021/03/24 03:16:35;;;;;;;7.85;1.88;;;;;;;6.83;75.36;101105.69;5071532;28;20049;-47
2021/03/24 03:19:05;;;;;;;5.07;2.38;;;;;;;6.88;75.23;101102.81;5057075;28;20048;-48
2021/03/24 03:21:41;;;;;;;9.80;2.22;;;;;;;6.90;74.93;101095.06;5072370;28;20497;-46
2021/03/24 03:24:29;;;;;;;6.82;2.85;;;;;;;6.91;75.43;101089.22;5072731;28;20048;-49
2021/03/24 03:26:58;;;;;;;8.80;1.98;;;;;;;6.94;75.11;101091.38;5071744;28;20135;-48
2021/03/24 03:29:25;;;;;;;8.73;2.40;;;;;;;6.98;75.28;101094.31;5071868;28;20075;-47
2021/03/24 03:31:53;;;;;;;16.85;1.95;;;;;;;6.99;75.09;101093.22;5071206;28;20074;-46
2021/03/24 03:34:25;;;;;;;9.57;1.90;;;;;;;6.99;75.07;101099.50;5071036;28;20552;-48
2021/03/24 03:36:54;;;;;;;13.05;3.60;;;;;;;6.99;75.23;101082.97;5072406;28;20054;-46
2021/03/24 03:39:24;;;;;;;12.27;2.00;;;;;;;6.98;75.07;101092.38;5071108;28;20131;-48
2021/03/24 03:41:53;;;;;;;6.65;1.60;;;;;;;6.97;74.80;101085.25;5064176;28;20067;-50
2021/03/24 03:44:21;;;;;;;10.48;1.80;;;;;;;6.95;74.89;101097.69;5072000;28;20444;-47
2021/03/24 03:46:53;;;;;;;12.25;3.05;;;;;;;6.87;74.49;101091.00;5071805;28;20083;-48
2021/03/24 03:49:21;;;;;;;7.63;1.50;;;;;;;6.84;74.91;101094.38;5070215;28;20068;-46
2021/03/24 03:51:53;;;;;;;8.50;1.70;;;;;;;6.79;74.79;101093.69;5071153;28;20070;-46
2021/03/24 03:54:33;;;;;;;15.68;3.17;;;;;;;6.72;74.78;101086.66;5071817;28;20138;-46
2021/03/24 03:57:10;;;;;;;3.42;1.33;;;;;;;6.67;74.66;101086.78;5072164;28;20048;-46
2021/03/24 03:59:56;;;;;;;9.18;1.90;;;;;;;6.64;74.72;101075.59;5051805;28;20144;-48
2021/03/24 04:02:35;;;;;;;5.72;1.70;;;;;;;6.63;75.02;101066.53;5062741;28;20040;-50
2021/03/24 04:05:06;;;;;;;5.22;1.33;;;;;;;6.56;74.73;101079.09;5071348;28;20071;-47
2021/03/24 04:07:38;;;;;;;10.85;1.95;;;;;;;6.52;75.02;101073.38;5051867;28;20578;-47
2021/03/24 04:10:06;;;;;;;9.55;1.35;;;;;;;6.50;74.97;101075.63;5053579;28;20476;-47
2021/03/24 04:12:37;;;;;;;7.90;1.42;;;;;;;6.50;74.92;101070.13;5051539;28;20076;-46
2021/03/24 04:15:17;;;;;;;14.73;2.60;;;;;;;6.48;74.58;101066.06;5051580;28;20091;-47
2021/03/24 04:17:50;;;;;;;8.85;1.63;;;;;;;6.44;74.43;101065.06;5051957;28;20110;-46
2021/03/24 04:20:22;;;;;;;4.70;1.20;;;;;;;6.41;74.83;101066.47;5070240;28;20037;-47
2021/03/24 04:22:51;;;;;;;9.43;1.45;;;;;;;6.40;74.81;101070.38;5071616;28;20455;-46
2021/03/24 04:25:26;;;;;;;5.82;1.30;;;;;;;6.38;74.91;101075.34;5071981;28;20123;-50
2021/03/24 04:27:56;;;;;;;9.38;1.40;;;;;;;6.38;74.34;101067.09;5070873;28;20096;-49
2021/03/24 04:30:29;;;;;;;7.68;1.70;;;;;;;6.37;74.45;101073.75;5071596;28;20040;-47
2021/03/24 04:32:55;;;;;;;12.82;3.13;;;;;;;6.35;74.42;101067.75;5071078;28;20064;-48
2021/03/24 04:35:23;;;;;;;6.75;2.95;;;;;;;6.35;74.84;101073.25;5070427;28;20049;-47
2021/03/24 04:37:54;;;;;;;4.75;1.20;;;;;;;6.35;75.11;101064.19;5071225;28;20103;-48
2021/03/24 04:40:27;;;;;;;10.35;1.65;;;;;;;6.38;74.99;101066.31;5071583;28;20040;-48
2021/03/24 04:43:04;;;;;;;15.35;2.03;;;;;;;6.40;74.78;101067.63;5071066;28;20144;-49
2021/03/24 04:45:44;;;;;;;11.38;2.03;;;;;;;6.43;74.74;101069.75;5071167;28;20139;-48
2021/03/24 04:48:18;;;;;;;7.57;1.33;;;;;;;6.46;75.01;101071.88;5051408;28;20124;-48
2021/03/24 04:50:53;;;;;;;16.33;1.83;;;;;;;6.47;74.91;101076.25;5051605;28;20041;-49
2021/03/24 04:53:21;;;;;;;8.60;1.80;;;;;;;6.47;74.70;101070.75;5068709;28;20067;-48
2021/03/24 04:55:50;;;;;;;9.70;2.17;;;;;;;6.46;74.48;101080.13;5071307;28;20075;-47
2021/03/24 04:58:28;;;;;;;12.98;2.38;;;;;;;6.43;74.59;101080.75;5069942;28;20045;-47
2021/03/24 05:01:00;;;;;;;5.22;1.48;;;;;;;6.42;74.72;101078.31;5071073;28;20553;-48
2021/03/24 05:03:34;;;;;;;9.85;1.40;;;;;;;6.41;74.87;101071.97;5070519;28;20107;-47
2021/03/24 05:06:05;;;;;;;7.82;1.40;;;;;;;6.42;74.84;101081.88;5070926;28;20049;-48
2021/03/24 05:08:36;;;;;;;7.47;1.50;;;;;;;6.43;74.74;101082.69;5071272;28;20068;-49
2021/03/24 05:11:31;;;;;;;6.80;2.28;;;;;;;6.42;74.76;101090.13;5070293;28;20489;-47
2021/03/24 05:14:01;;;;;;;14.10;1.75;;;;;;;6.41;74.60;101083.00;5070583;28;20071;-48
2021/03/24 05:16:38;;;;;;;7.03;1.20;;;;;;;6.43;74.51;101089.00;5071274;28;20064;-47
2021/03/24 05:19:05;;;;;;;7.75;1.83;;;;;;;6.44;74.79;101082.38;5065244;28;20571;-50
2021/03/24 05:21:45;;;;;;;6.63;1.95;;;;;;;6.45;74.85;101084.00;5055543;28;20052;-48
2021/03/24 05:24:18;;;;;;;7.85;1.67;;;;;;;6.45;74.68;101086.75;5076315;28;20045;-50
2021/03/24 05:26:47;;;;;;;;;;;;;;;6.45;74.43;101084.00;5070533;28;20041;-49
2021/03/24 05:29:21;;;;;;;8.00;1.98;;;;;;;6.47;74.57;101073.50;5070797;28;20022;-48
2021/03/24 05:31:52;;;;;;;7.78;1.60;;;;;;;6.47;74.47;101079.00;5070721;28;20040;-48
2021/03/24 05:34:32;;;;;;;12.98;1.58;;;;;;;6.43;74.30;101075.25;5070273;28;20052;-48
2021/03/24 05:37:00;;;;;;;11.82;3.53;;;;;;;6.42;74.05;101084.63;5070906;28;20497;-47
2021/03/24 05:39:35;;;;;;;11.07;1.58;;;;;;;6.37;74.23;101076.50;5070858;28;20097;-50
2021/03/24 05:42:23;;;;;;;8.13;1.35;;;;;;;6.33;74.32;101078.22;5074358;28;20057;-49
2021/03/24 05:45:05;;;;;;;5.93;1.25;;;;;;;6.25;74.34;101078.94;5069986;28;20053;-52
2021/03/24 05:47:59;;;;;;;4.78;1.30;;;;;;;6.22;74.68;101076.00;5069925;28;20044;-48
2021/03/24 05:51:06;;;;;;;13.55;2.58;;;;;;;6.18;74.49;101078.56;5073502;28;20131;-49
2021/03/24 05:53:55;;;;;;;9.55;1.50;;;;;;;6.17;74.47;101079.66;5048519;28;20106;-49
2021/03/24 05:56:42;;;;;;;10.57;2.15;;;;;;;6.13;74.57;101086.91;5074250;28;20040;-49
2021/03/24 05:59:18;;;;;;;6.30;2.05;;;;;;;6.09;74.73;101086.69;5073498;28;20044;-48
2021/03/24 06:02:22;;;;;;;9.18;1.20;;;;;;;6.06;74.99;101083.78;5073048;28;20043;-50
2021/03/24 06:05:13;;;;;;;9.02;1.80;;;;;;;6.06;74.70;101092.03;5060584;28;20072;-50
2021/03/24 06:07:39;;;;;;;10.05;1.70;;;;;;;6.08;74.63;101095.28;5074034;28;20558;-46
2021/03/24 06:10:14;;;;;;;6.10;1.50;;;;;;;6.03;74.91;101089.88;5067560;28;20044;-49
2021/03/24 06:12:58;;;;;;;5.50;1.23;;;;;;;5.99;74.81;101097.09;5053958;28;20053;-47
2021/03/24 06:15:32;;;;;;;9.05;2.53;;;;;;;5.97;75.03;101086.41;5065290;28;20086;-52
2021/03/24 06:18:16;;;;;;;5.80;1.25;;;;;;;5.94;74.80;101092.53;5073122;28;20087;-50
2021/03/24 06:21:07;;;;;;;10.25;2.10;;;;;;;5.95;74.84;101096.09;5053967;28;20037;-49
2021/03/24 06:23:45;;;;;;;5.50;1.50;;;;;;;5.94;74.88;101099.94;5053746;28;20056;-50
2021/03/24 06:26:20;;;;;;;9.35;1.77;;;;;;;5.93;74.94;101103.84;5053258;28;20053;-50
2021/03/24 06:29:01;;;;;;;8.82;2.97;;;;;;;5.91;74.74;101103.31;5053100;28;20446;-48
2021/03/24 06:31:51;;;;;;;10.55;2.35;;;;;;;5.90;75.25;101098.94;5053493;28;20135;-48
2021/03/24 06:34:37;;;;;;;10.73;2.72;;;;;;;5.89;75.07;101095.38;5060459;28;20102;-48
2021/03/24 06:37:22;;;;;;;9.90;2.17;;;;;;;5.89;75.01;101100.06;5073315;28;20045;-50
2021/03/24 06:40:26;;;;;;;2.85;1.15;;;;;;;5.88;74.78;101098.41;5068340;28;20490;-48
2021/03/24 06:43:20;;;;;;;9.48;2.03;;;;;;;5.86;74.88;101095.16;5068076;28;20080;-53
2021/03/24 06:46:20;;;;;;;10.48;2.35;;;;;;;5.86;75.33;101098.72;5073148;28;20485;-48
2021/03/24 06:48:52;;;;;;;15.88;2.20;;;;;;;5.86;75.34;101092.41;5072883;28;20052;-47
2021/03/24 06:51:43;;;;;;;11.82;1.60;;;;;;;5.84;74.96;101091.88;5072171;28;20049;-49
2021/03/24 06:54:42;;;;;;;18.00;4.50;;;;;;;5.81;75.31;101095.25;5062573;28;20040;-47
2021/03/24 06:57:45;;;;;;;9.65;2.75;;;;;;;5.83;75.40;101103.97;5065193;28;20106;-48
2021/03/24 07:00:27;;;;;;;14.80;2.22;;;;;;;5.86;74.96;101100.66;5073370;28;20128;-50
2021/03/24 07:03:17;;;;;;;11.13;2.28;;;;;;;5.84;75.11;101105.63;5072723;28;20049;-49
2021/03/24 07:06:04;;;;;;;14.80;3.45;;;;;;;5.86;75.50;101106.16;5057715;28;20036;-48
2021/03/24 07:09:20;;;;;;;10.68;2.30;;;;;;;5.87;75.68;101110.53;5072607;28;20048;-52
2021/03/24 07:12:11;;;;;;;5.57;1.55;;;;;;;5.91;75.14;101114.28;5037858;28;20060;-48
2021/03/24 07:15:33;;;;;;;11.18;1.80;;;;;;;5.91;75.79;101114.28;5073003;28;20044;-49
2021/03/24 07:18:24;;;;;;;10.20;1.40;;;;;;;5.93;75.47;101121.13;4990767;28;20046;-50
2021/03/24 07:21:09;;;;;;;15.52;2.30;;;;;;;6.00;75.15;101124.28;4971033;28;20324;-48
2021/03/24 07:24:08;;;;;;;7.20;2.20;;;;;;;6.05;75.36;101131.59;5033966;28;20049;-47
2021/03/24 07:26:54;;;;;;;7.45;1.50;;;;;;;6.11;75.36;101139.47;5062580;28;20111;-48
2021/03/24 07:29:39;;;;;;;15.43;2.38;;;;;;;6.16;75.34;101132.22;5072333;28;20443;-49
2021/03/24 07:32:14;;;;;;;7.72;1.85;;;;;;;6.20;74.76;101141.47;5071521;28;20045;-48
2021/03/24 07:35:05;;;;;;;8.40;2.05;;;;;;;6.24;75.05;101137.00;5071013;28;20052;-47
2021/03/24 07:37:52;;;;;;;17.17;3.05;;;;;;;6.31;75.11;101148.38;5072103;28;20123;-50
2021/03/24 07:40:43;;;;;;;12.30;2.75;;;;;;;6.34;74.92;101132.09;5040765;28;20095;-49
2021/03/24 07:43:47;;;;;;;12.20;1.85;;;;;;;6.38;74.79;101138.59;5062137;28;20497;-51
2021/03/24 07:46:32;;;;;;;12.95;1.98;;;;;;;6.44;74.75;101131.88;5082301;28;20559;-48
2021/03/24 07:49:34;;;;;;;10.18;1.73;;;;;;;6.49;74.54;101139.19;5064199;28;20049;-49
2021/03/24 07:52:25;;;;;;;12.68;2.28;;;;;;;6.54;74.56;101131.66;5071189;28;20394;-51
2021/03/24 07:55:07;;;;;;;7.65;1.77;;;;;;;6.60;74.37;101141.41;5072157;28;20053;-50
2021/03/24 07:58:20;;;;;;;20.10;4.13;;;;;;;6.68;74.27;101137.13;5055865;28;20059;-49
2021/03/24 08:01:11;;;;;;;6.88;1.65;;;;;;;6.74;74.03;101142.22;5066885;28;20091;-50
2021/03/24 08:04:04;;;;;;;9.10;2.65;;;;;;;6.80;73.65;101147.59;5070005;28;20163;-52
2021/03/24 08:06:59;;;;;;;12.50;2.10;;;;;;;6.86;73.94;101130.66;5071378;28;20044;-48
2021/03/24 08:09:43;;;;;;;12.82;2.33;;;;;;;6.91;73.66;101138.78;5071395;28;20053;-47
2021/03/24 08:12:53;;;;;;;13.65;2.92;;;;;;;6.97;73.24;101139.47;5051827;28;20363;-49
2021/03/24 08:15:59;;;;;;;12.27;2.85;;;;;;;7.04;73.36;101143.41;5052052;28;20049;-50
2021/03/24 08:18:39;;;;;;;19.05;4.55;;;;;;;7.12;73.38;101144.63;5063859;28;20048;-49
2021/03/24 08:21:36;;;;;;;11.50;2.22;;;;;;;7.17;73.04;101150.03;5059950;28;20398;-48
2021/03/24 08:24:16;;;;;;;9.68;2.15;;;;;;;7.26;72.85;101153.63;5070366;28;20132;-50
2021/03/24 08:26:53;;;;;;;11.48;1.88;;;;;;;7.32;72.93;101155.97;5046287;28;20546;-51
2021/03/24 08:29:51;;;;;;;14.45;2.38;;;;;;;7.38;72.90;101151.13;5069782;28;20549;-50
2021/03/24 08:32:49;;;;;;;18.08;2.95;;;;;;;7.47;73.00;101157.50;5068732;28;20051;-48
2021/03/24 08:36:00;;;;;;;13.93;2.20;;;;;;;7.54;72.61;101152.38;5067345;28;20098;-48
2021/03/24 08:38:54;;;;;;;10.00;1.67;;;;;;;7.61;72.01;101155.50;5067035;28;20053;-51
2021/03/24 08:41:20;;;;;;;13.30;2.72;;;;;;;7.71;72.36;101163.50;5080838;28;20068;-48
2021/03/24 08:43:57;;;;;;;17.75;2.50;;;;;;;7.79;72.09;101159.97;5069643;28;20043;-47
2021/03/24 08:46:33;;;;;;;13.43;1.90;;;;;;;7.87;72.34;101167.47;5069457;28;20048;-50
2021/03/24 08:49:04;;;;;;;9.45;2.00;;;;;;;7.93;71.88;101163.44;5060241;28;20131;-54
2021/03/24 08:51:45;;;;;;;9.93;2.33;;;;;;;8.06;72.11;101163.66;5063493;28;20095;-50
2021/03/24 08:54:14;;;;;;;14.83;2.17;;;;;;;8.16;72.15;101168.88;5069367;28;20052;-54
2021/03/24 08:56:50;;;;;;;18.52;2.00;;;;;;;8.27;72.20;101171.06;5068881;28;20375;-53
2021/03/24 08:59:27;;;;;;;9.60;1.95;;;;;;;8.42;72.69;101172.56;5069710;28;20426;-45
2021/03/24 09:02:05;;;;;;;10.43;1.83;;;;;;;8.57;71.76;101167.44;5068524;28;20125;-46
2021/03/24 09:04:47;;;;;;;11.68;1.90;;;;;;;8.78;71.24;101161.28;5069152;28;20052;-50
2021/03/24 09:07:22;;;;;;;;;;;;;;;8.94;70.03;101166.03;5069552;28;20087;-49
2021/03/24 09:10:26;;;;;;;13.20;2.35;;;;;;;9.25;71.43;101165.03;5068788;28;19924;-50
2021/03/24 09:13:03;;;;;;;10.32;1.67;;;;;;;9.64;74.22;101170.34;5068157;28;20049;-48
2021/03/24 09:16:03;;;;;;;16.05;2.67;;;;;;;10.15;73.50;101173.00;5071688;28;20103;-48
2021/03/24 09:18:50;;;;;;;12.32;2.78;;;;;;;10.77;74.82;101172.34;5072790;28;20040;-50
2021/03/24 09:21:32;;;;;;;17.02;5.53;;;;;;;11.61;70.91;101167.22;5064531;28;20048;-50
2021/03/24 09:24:17;;;;;;;13.10;2.40;;;;;;;12.48;70.60;101176.16;5072979;28;20127;-53
2021/03/24 09:27:10;;;;;;;14.23;3.35;;;;;;;13.24;64.19;101165.03;5080210;28;20052;-52
2021/03/24 09:30:10;;;;;;;10.57;2.25;;;;;;;13.78;62.47;101172.91;5072589;28;20390;-52
2021/03/24 09:32:43;;;;;;;17.23;2.67;;;;;;;14.17;62.67;101168.38;5072509;28;20135;-50
2021/03/24 09:35:27;;;;;;;9.98;1.77;;;;;;;14.57;59.73;101166.22;5072506;28;20523;-54
2021/03/24 09:38:04;;;;;;;12.90;2.63;;;;;;;14.87;59.41;101175.69;5047958;28;20048;-50
2021/03/24 09:40:37;;;;;;;11.90;2.30;;;;;;;15.12;57.19;101173.44;5056822;28;20040;-48
2021/03/24 09:43:16;;;;;;;13.00;2.30;;;;;;;15.36;57.04;101164.00;5069201;28;20040;-50
2021/03/24 09:45:43;;;;;;;13.50;2.10;;;;;;;15.42;56.75;101165.31;5072289;28;20493;-53
2021/03/24 09:48:15;;;;;;;9.80;1.92;;;;;;;15.59;55.04;101162.94;5070485;28;20132;-50
2021/03/24 09:50:51;;;;;;;;;;;;;;;15.69;52.75;101161.50;5052913;28;20045;-50
2021/03/24 09:53:26;;;;;;;6.38;2.25;;;;;;;15.53;55.13;101166.38;5052389;28;19987;-51
2021/03/24 09:55:55;;;;;;;12.50;3.08;;;;;;;15.29;53.07;101166.63;5055804;28;20106;-53
2021/03/24 09:58:33;;;;;;;12.07;3.30;;;;;;;15.23;53.23;101169.72;5071388;28;20521;-53
2021/03/24 10:01:11;;;;;;;13.57;2.05;;;;;;;15.32;52.69;101168.69;5071016;28;20713;-50
2021/03/24 10:03:49;;;;;;;7.93;2.28;;;;;;;15.48;51.11;101172.25;5086414;28;20044;-49
2021/03/24 10:06:38;;;;;;;13.18;1.98;;;;;;;15.77;51.89;101163.25;5069721;28;20109;-49
2021/03/24 10:09:25;;;;;;;7.30;1.70;;;;;;;15.96;50.30;101142.88;5053960;28;20128;-51
2021/03/24 10:12:20;;;;;;;12.18;2.58;;;;;;;15.94;49.67;101148.81;5063087;28;20409;-52
2021/03/24 10:15:26;;;;;;;8.02;1.88;;;;;;;15.88;50.36;101146.72;5051737;28;20047;-54
2021/03/24 10:17:56;;;;;;;11.63;1.95;;;;;;;15.86;51.07;101149.84;5042587;28;20072;-51
2021/03/24 10:20:35;;;;;;;8.82;2.00;;;;;;;15.91;50.74;101152.38;5063787;28;20044;-53
2021/03/24 10:23:15;;;;;;;9.05;2.50;;;;;;;16.08;49.54;101163.03;5072342;28;20082;-53
2021/03/24 10:25:48;;;;;;;8.98;1.58;;;;;;;16.42;49.69;101147.22;5069788;28;20049;-51
2021/03/24 10:28:24;;;;;;;11.82;2.17;;;;;;;16.54;48.86;101149.06;5069944;28;20118;-47
2021/03/24 10:31:01;;;;;;;7.47;1.65;;;;;;;16.45;47.21;101152.06;5072745;28;20109;-52
2021/03/24 10:33:33;;;;;;;9.40;2.13;;;;;;;16.09;47.52;101153.47;5070934;28;20219;-52
2021/03/24 10:36:05;;;;;;;11.20;2.25;;;;;;;15.71;48.28;101147.97;5071266;28;20379;-54
2021/03/24 10:38:51;;;;;;;6.15;1.88;;;;;;;15.68;48.19;101143.94;5058439;28;20051;-53
2021/03/24 10:41:28;;;;;;;8.90;1.90;;;;;;;15.74;48.68;101150.03;5058081;28;20044;-49
2021/03/24 10:44:03;;;;;;;10.93;1.85;;;;;;;15.36;47.92;101142.47;5071906;28;20048;-54
2021/03/24 10:46:37;;;;;;;10.68;2.20;;;;;;;15.38;49.30;101150.50;5070860;28;20130;-50
2021/03/24 10:49:14;;;;;;;9.23;2.78;;;;;;;15.53;48.91;101153.22;5066948;28;20044;-50
2021/03/24 10:51:55;;;;;;;5.68;1.73;;;;;;;15.42;48.42;101134.63;5071506;28;20072;-51
2021/03/24 10:54:25;;;;;;;11.57;2.17;;;;;;;15.08;49.17;101137.13;5071079;28;20048;-50
2021/03/24 10:57:25;;;;;;;11.27;2.28;;;;;;;15.17;48.85;101134.91;5058896;28;20330;-50
2021/03/24 11:00:15;;;;;;;10.75;1.75;;;;;;;15.08;49.73;101119.59;5079869;28;20052;-51
2021/03/24 11:03:19;;;;;;;7.60;1.77;;;;;;;14.98;49.51;101121.00;5070692;28;20049;-52
2021/03/24 11:06:11;;;;;;;8.93;1.50;;;;;;;14.83;49.58;101118.22;5050253;28;20056;-53
2021/03/24 11:08:52;;;;;;;10.70;2.03;;;;;;;14.86;50.42;101112.75;5050480;28;20389;-50
2021/03/24 11:11:22;;;;;;;8.63;1.65;;;;;;;14.73;50.61;101114.03;5066661;28;20099;-52
2021/03/24 11:13:56;;;;;;;11.80;4.20;;;;;;;14.64;50.30;101110.66;5071075;28;20037;-53
2021/03/24 11:16:27;;;;;;;8.73;1.90;;;;;;;14.43;50.88;101116.53;5061775;28;20678;-52
2021/03/24 11:19:06;;;;;;;16.15;2.63;;;;;;;14.20;51.02;101107.19;5077474;28;20439;-53
2021/03/24 11:22:00;;;;;;;8.18;2.70;;;;;;;13.96;51.52;101102.63;5070597;28;20438;-49
2021/03/24 11:25:10;;;;;;;8.27;2.75;;;;;;;13.83;52.40;101106.66;5068429;28;20460;-50
2021/03/24 11:27:53;;;;;;;10.35;2.05;;;;;;;13.54;52.50;101101.53;5058706;28;20060;-50
2021/03/24 11:30:27;;;;;;;11.25;1.88;;;;;;;13.40;52.91;101109.47;5070204;28;20054;-48
2021/03/24 11:33:06;;;;;;;7.80;2.25;;;;;;;13.40;53.86;101101.13;5070611;28;20036;-52
2021/03/24 11:35:45;;;;;;;16.30;2.67;;;;;;;13.34;53.60;101108.91;5069811;28;20103;-48
2021/03/24 11:38:35;;;;;;;7.85;1.92;;;;;;;13.25;53.55;101097.16;5053119;28;20106;-49
2021/03/24 11:41:04;;;;;;;11.20;3.55;;;;;;;13.13;53.90;101102.75;5059465;28;20070;-53
2021/03/24 11:43:38;;;;;;;5.90;1.38;;;;;;;13.05;53.99;101105.66;5069042;28;20103;-53
2021/03/24 11:46:16;;;;;;;7.22;1.67;;;;;;;12.96;53.84;101105.00;5070015;28;20076;-49
2021/03/24 11:49:10;;;;;;;10.38;1.95;;;;;;;12.85;53.29;101101.91;5058133;28;20048;-51
2021/03/24 11:51:46;;;;;;;9.93;2.60;;;;;;;12.80;54.00;101100.19;5069593;28;20758;-51
2021/03/24 11:54:36;;;;;;;3.45;1.42;;;;;;;12.73;54.03;101105.50;5070208;28;20058;-51
2021/03/24 11:57:18;;;;;;;5.95;1.60;;;;;;;12.65;53.81;101114.00;5067935;28;20048;-52
2021/03/24 12:00:08;;;;;;;9.27;1.52;;;;;;;12.61;54.51;101099.19;5068878;28;20048;-52
2021/03/24 12:03:04;;;;;;;8.65;1.33;;;;;;;12.57;54.00;101101.88;5070336;28;20044;-51
2021/03/24 12:05:40;;;;;;;8.82;1.98;;;;;;;12.81;54.74;101090.66;5069908;28;20452;-50
2021/03/24 12:08:20;;;;;;;4.60;1.85;;;;;;;13.01;54.76;101096.41;5053036;28;20067;-50
2021/03/24 12:11:13;;;;;;;13.85;1.85;;;;;;;13.17;53.80;101086.19;5060793;28;20076;-49
2021/03/24 12:13:41;;;;;;;14.88;1.73;;;;;;;13.15;53.34;101103.22;5050034;28;20498;-51
2021/03/24 12:16:10;;;;;;;10.50;1.27;;;;;;;13.13;53.61;101090.84;5068599;28;20094;-48
2021/03/24 12:18:45;;;;;;;7.55;1.52;;;;;;;13.08;52.96;101111.34;5069320;28;20444;-49
2021/03/24 12:21:21;;;;;;;9.60;1.45;;;;;;;13.01;53.42;101088.06;5069459;28;20048;-51